Time;durP1;ratioP1;P1;durP2;ratioP2;P2;SDS_P1;SDS_P2;PMS_P1;PMS_P2;Temp;Humidity;BMP_temperature;BMP_pressure;BME280_temperature;BME280_humidity;BME280_pressure;Samples;Min_cycle;Max_cycle;Signal;HPM_P1;HPM_P2
2022/04/06 00:01:47;;;;;;;24.55;8.75;;;;;;;;;;5052486;28;20083;-80
2022/04/06 00:04:14;;;;;;;25.23;9.32;;;;;;;;;;5052162;28;20043;-82
2022/04/06 00:06:40;;;;;;;25.70;8.90;;;;;;;;;;5068629;28;20111;-80
2022/04/06 00:09:06;;;;;;;26.67;8.20;;;;;;;;;;5069124;28;20040;-79
2022/04/06 00:11:32;;;;;;;22.58;7.97;;;;;;;;;;5052354;28;20123;-80
2022/04/06 00:13:59;;;;;;;28.27;8.45;;;;;;;;;;5054443;28;20052;-81
2022/04/06 00:16:25;;;;;;;27.48;7.90;;;;;;;;;;5075054;28;20052;-80
2022/04/06 00:18:51;;;;;;;24.00;7.75;;;;;;;;;;5075738;28;20581;-80
2022/04/06 00:21:19;;;;;;;27.35;7.15;;;;;;;;;;5072861;28;20040;-80
2022/04/06 00:23:45;;;;;;;26.27;7.45;;;;;;;;;;5054114;28;20036;-79
2022/04/06 00:26:11;;;;;;;25.40;7.60;;;;;;;;;;5068347;28;20040;-80
2022/04/06 00:28:37;;;;;;;27.30;7.43;;;;;;;;;;5068487;28;20499;-80
2022/04/06 00:31:03;;;;;;;21.65;7.60;;;;;;;;;;5068577;28;20048;-80
2022/04/06 00:33:29;;;;;;;19.80;6.45;;;;;;;;;;5068444;28;20043;-80
2022/04/06 00:35:56;;;;;;;25.52;6.60;;;;;;;;;;5051624;28;20094;-79
2022/04/06 00:38:22;;;;;;;24.35;6.93;;;;;;;;;;5068298;28;20045;-80
2022/04/06 00:40:48;;;;;;;18.50;6.10;;;;;;;;;;5048990;28;20044;-80
2022/04/06 00:43:15;;;;;;;21.13;5.97;;;;;;;;;;5052017;28;20123;-80
2022/04/06 00:45:42;;;;;;;22.45;5.82;;;;;;;;;;5068091;28;20044;-79
2022/04/06 00:48:08;;;;;;;19.70;5.65;;;;;;;;;;5068068;28;20237;-78
2022/04/06 00:50:34;;;;;;;20.08;5.90;;;;;;;;;;5067919;28;20090;-78
2022/04/06 00:53:01;;;;;;;16.98;5.43;;;;;;;;;;5068381;28;20028;-79
2022/04/06 00:55:29;;;;;;;21.50;6.50;;;;;;;;;;5068147;28;20125;-79
2022/04/06 00:57:55;;;;;;;22.25;5.55;;;;;;;;;;5067747;28;20051;-79
2022/04/06 01:00:21;;;;;;;15.23;5.50;;;;;;;;;;5067716;28;20059;-79
2022/04/06 01:02:48;;;;;;;19.98;5.28;;;;;;;;;;5035145;28;20553;-79
2022/04/06 01:05:14;;;;;;;16.77;5.35;;;;;;;;;;5068328;28;20090;-78
2022/04/06 01:07:41;;;;;;;12.68;4.95;;;;;;;;;;5069190;28;20045;-78
2022/04/06 01:10:07;;;;;;;17.42;5.32;;;;;;;;;;5051849;28;20043;-78
2022/04/06 01:12:38;;;;;;;15.05;4.97;;;;;;;;;;5068160;28;20261;-79
2022/04/06 01:15:05;;;;;;;16.35;4.97;;;;;;;;;;5068459;28;20067;-78
2022/04/06 01:17:35;;;;;;;19.23;4.95;;;;;;;;;;5051091;28;20036;-78
2022/04/06 01:20:01;;;;;;;12.18;4.40;;;;;;;;;;5068151;28;20041;-78
2022/04/06 01:22:27;;;;;;;14.52;5.18;;;;;;;;;;5068196;28;20093;-77
2022/04/06 01:24:54;;;;;;;15.30;4.72;;;;;;;;;;5067780;28;20388;-78
2022/04/06 01:27:20;;;;;;;15.50;4.90;;;;;;;;;;5067720;28;20032;-78
2022/04/06 01:29:47;;;;;;;20.15;4.40;;;;;;;;;;5067666;28;20127;-77
2022/04/06 01:32:14;;;;;;;14.65;4.97;;;;;;;;;;5051786;28;20434;-78
2022/04/06 01:34:41;;;;;;;11.90;3.40;;;;;;;;;;5051132;28;20174;-79
2022/04/06 01:37:08;;;;;;;12.18;3.50;;;;;;;;;;5068143;28;20564;-76
2022/04/06 01:39:35;;;;;;;10.30;3.22;;;;;;;;;;5051078;28;20048;-76
2022/04/06 01:42:01;;;;;;;13.07;3.15;;;;;;;;;;5070302;28;20037;-77
2022/04/06 01:44:28;;;;;;;10.68;3.00;;;;;;;;;;5071868;28;20511;-78
2022/04/06 01:46:54;;;;;;;16.67;3.80;;;;;;;;;;5071381;28;20036;-79
2022/04/06 01:52:15;;;;;;;10.75;3.45;;;;;;;;;;5057545;28;20044;-78
2022/04/06 01:54:52;;;;;;;11.65;3.28;;;;;;;;;;5054662;28;20041;-78
2022/04/06 01:57:18;;;;;;;10.18;2.85;;;;;;;;;;5071310;28;20090;-80
2022/04/06 01:59:45;;;;;;;9.88;2.58;;;;;;;;;;5071422;28;20059;-80
2022/04/06 02:02:12;;;;;;;9.30;2.53;;;;;;;;;;5067177;28;20471;-79
2022/04/06 02:04:39;;;;;;;10.88;2.85;;;;;;;;;;5070625;28;20121;-78
2022/04/06 02:07:06;;;;;;;12.43;3.10;;;;;;;;;;5070556;28;20040;-80
2022/04/06 02:09:32;;;;;;;12.70;2.97;;;;;;;;;;5071337;28;20101;-80
2022/04/06 02:11:59;;;;;;;11.20;2.60;;;;;;;;;;5071123;28;20039;-79
2022/04/06 02:14:26;;;;;;;8.48;2.55;;;;;;;;;;5071327;28;20048;-81
2022/04/06 02:16:53;;;;;;;11.18;2.90;;;;;;;;;;5071130;28;20040;-79
2022/04/06 02:19:19;;;;;;;8.40;2.38;;;;;;;;;;5071214;28;20186;-80
2022/04/06 02:21:45;;;;;;;10.75;3.13;;;;;;;;;;5071039;28;20036;-79
2022/04/06 02:24:11;;;;;;;11.35;2.70;;;;;;;;;;5054619;28;20119;-78
2022/04/06 02:26:37;;;;;;;10.43;2.58;;;;;;;;;;5037804;28;20484;-79
2022/04/06 02:29:03;;;;;;;8.43;2.95;;;;;;;;;;5071028;28;20033;-80
2022/04/06 02:31:29;;;;;;;10.15;3.00;;;;;;;;;;5054818;28;20518;-78
2022/04/06 02:33:55;;;;;;;9.93;2.80;;;;;;;;;;5070881;28;20048;-78
2022/04/06 02:36:22;;;;;;;13.35;3.20;;;;;;;;;;5054480;28;20389;-79
2022/04/06 02:38:48;;;;;;;10.45;2.75;;;;;;;;;;5070546;28;20056;-77
2022/04/06 02:41:14;;;;;;;12.57;3.95;;;;;;;;;;5071034;28;20491;-78
2022/04/06 02:43:40;;;;;;;14.32;3.03;;;;;;;;;;5053756;28;20499;-79
2022/04/06 02:46:06;;;;;;;14.32;3.40;;;;;;;;;;5071167;28;20076;-78
2022/04/06 02:48:33;;;;;;;11.52;3.80;;;;;;;;;;5070479;28;20051;-78
2022/04/06 02:50:59;;;;;;;12.18;3.50;;;;;;;;;;5070275;28;20040;-79
2022/04/06 02:53:25;;;;;;;14.85;4.28;;;;;;;;;;5069393;28;20090;-78
2022/04/06 02:55:51;;;;;;;16.30;4.30;;;;;;;;;;5070467;28;20044;-79
2022/04/06 02:58:17;;;;;;;14.93;5.10;;;;;;;;;;5053729;28;20093;-79
2022/04/06 03:00:43;;;;;;;13.55;5.00;;;;;;;;;;5070225;28;20121;-79
2022/04/06 03:03:09;;;;;;;21.15;5.53;;;;;;;;;;5070605;28;20036;-79
2022/04/06 03:05:36;;;;;;;24.75;6.45;;;;;;;;;;5070180;28;20526;-78
2022/04/06 03:08:02;;;;;;;26.50;6.55;;;;;;;;;;5069995;28;20047;-78
2022/04/06 03:10:28;;;;;;;20.67;6.53;;;;;;;;;;5037137;28;20047;-78
2022/04/06 03:12:54;;;;;;;21.52;6.60;;;;;;;;;;5070108;28;20051;-78
2022/04/06 03:15:20;;;;;;;21.27;7.40;;;;;;;;;;5070200;28;20167;-78
2022/04/06 03:17:47;;;;;;;24.73;7.45;;;;;;;;;;5069737;28;20036;-78
2022/04/06 03:20:13;;;;;;;26.05;7.50;;;;;;;;;;5053347;28;20040;-77
2022/04/06 03:22:39;;;;;;;25.73;7.60;;;;;;;;;;5069343;28;20060;-80
2022/04/06 03:25:06;;;;;;;24.77;7.32;;;;;;;;;;5069604;28;20040;-80
2022/04/06 03:27:33;;;;;;;24.23;7.50;;;;;;;;;;5070123;28;20047;-79
2022/04/06 03:30:00;;;;;;;23.48;7.43;;;;;;;;;;5071780;28;20036;-78
2022/04/06 03:32:26;;;;;;;19.15;6.95;;;;;;;;;;5069754;28;20047;-77
2022/04/06 03:34:53;;;;;;;22.73;7.40;;;;;;;;;;5070210;28;20181;-78
2022/04/06 03:37:19;;;;;;;22.73;7.53;;;;;;;;;;5072479;28;20067;-77
2022/04/06 03:39:45;;;;;;;19.33;6.75;;;;;;;;;;5070212;28;20062;-78
2022/04/06 03:42:11;;;;;;;17.95;6.40;;;;;;;;;;5070500;28;20502;-77
2022/04/06 03:44:37;;;;;;;18.90;6.05;;;;;;;;;;5071403;28;20033;-78
2022/04/06 03:47:03;;;;;;;19.48;6.22;;;;;;;;;;5070593;28;20039;-77
2022/04/06 03:49:29;;;;;;;18.13;5.95;;;;;;;;;;5053840;28;20037;-77
2022/04/06 03:51:56;;;;;;;17.20;5.68;;;;;;;;;;5053061;28;20083;-79
2022/04/06 03:54:22;;;;;;;16.30;5.85;;;;;;;;;;5069350;28;20047;-79
2022/04/06 03:56:48;;;;;;;16.27;5.03;;;;;;;;;;5068800;28;20060;-79
2022/04/06 03:59:14;;;;;;;15.15;5.10;;;;;;;;;;5068538;28;20081;-78
2022/04/06 04:01:40;;;;;;;14.35;5.25;;;;;;;;;;5065873;28;20056;-79
2022/04/06 04:04:06;;;;;;;18.90;5.20;;;;;;;;;;5068339;28;20037;-79
2022/04/06 04:06:32;;;;;;;17.20;5.03;;;;;;;;;;5051275;28;20032;-79
2022/04/06 04:08:58;;;;;;;15.85;4.70;;;;;;;;;;5070048;28;20149;-79
2022/04/06 04:11:25;;;;;;;17.13;5.00;;;;;;;;;;5052698;28;20059;-78
2022/04/06 04:13:51;;;;;;;12.93;4.78;;;;;;;;;;5068769;28;20036;-77
2022/04/06 04:16:17;;;;;;;18.05;4.95;;;;;;;;;;5069123;28;20044;-78
2022/04/06 04:18:43;;;;;;;16.80;4.47;;;;;;;;;;5068521;28;20071;-78
2022/04/06 04:23:53;;;;;;;11.65;4.10;;;;;;;;;;5067845;28;20148;-80
2022/04/06 04:26:20;;;;;;;12.32;4.00;;;;;;;;;;5069105;28;20035;-80
2022/04/06 04:28:46;;;;;;;18.08;4.10;;;;;;;;;;5068675;28;20510;-80
2022/04/06 04:31:12;;;;;;;16.35;4.97;;;;;;;;;;5068616;28;20036;-79
2022/04/06 04:33:38;;;;;;;11.05;3.58;;;;;;;;;;5051918;28;20047;-81
2022/04/06 04:36:04;;;;;;;13.57;3.65;;;;;;;;;;5068704;28;20039;-77
2022/04/06 04:38:30;;;;;;;16.25;3.63;;;;;;;;;;5068483;28;20045;-77
2022/04/06 04:40:57;;;;;;;15.68;3.58;;;;;;;;;;5068705;28;20044;-80
2022/04/06 04:43:23;;;;;;;19.30;4.38;;;;;;;;;;5068665;28;20032;-79
2022/04/06 04:45:49;;;;;;;18.58;3.80;;;;;;;;;;5051301;28;20959;-79
2022/04/06 04:48:15;;;;;;;16.92;4.82;;;;;;;;;;5068410;28;20486;-79
2022/04/06 04:50:41;;;;;;;11.07;2.92;;;;;;;;;;5067616;28;20048;-80
2022/04/06 04:53:07;;;;;;;14.65;3.70;;;;;;;;;;5051893;28;20032;-78
2022/04/06 04:55:34;;;;;;;14.07;3.70;;;;;;;;;;5068616;28;20059;-78
2022/04/06 04:58:00;;;;;;;10.52;2.95;;;;;;;;;;5068056;28;20033;-79
2022/04/06 05:00:26;;;;;;;9.13;3.28;;;;;;;;;;5068394;28;20703;-79
2022/04/06 05:02:52;;;;;;;13.75;3.28;;;;;;;;;;5068181;28;20120;-80
2022/04/06 05:05:19;;;;;;;15.05;3.40;;;;;;;;;;5068226;28;20559;-77
2022/04/06 05:07:45;;;;;;;11.27;2.90;;;;;;;;;;5068230;28;20041;-77
2022/04/06 05:10:11;;;;;;;14.73;2.90;;;;;;;;;;5068078;28;20036;-79
2022/04/06 05:12:37;;;;;;;15.90;3.58;;;;;;;;;;5050873;28;20064;-79
2022/04/06 05:15:07;;;;;;;11.73;2.63;;;;;;;;;;5067977;28;20075;-80
2022/04/06 05:17:35;;;;;;;12.05;2.60;;;;;;;;;;5055836;28;20042;-80
2022/04/06 05:20:02;;;;;;;14.25;3.17;;;;;;;;;;5072035;28;20058;-79
2022/04/06 05:22:28;;;;;;;11.80;3.08;;;;;;;;;;5072358;28;20044;-80
2022/04/06 05:24:54;;;;;;;13.15;3.10;;;;;;;;;;5071828;28;20132;-79
2022/04/06 05:27:20;;;;;;;12.40;2.97;;;;;;;;;;5072214;28;20039;-80
2022/04/06 05:29:46;;;;;;;9.68;2.67;;;;;;;;;;5055148;28;20079;-80
2022/04/06 05:32:12;;;;;;;9.75;2.38;;;;;;;;;;5072094;28;20044;-82
2022/04/06 05:34:38;;;;;;;10.77;2.63;;;;;;;;;;5055826;28;20463;-80
2022/04/06 05:37:04;;;;;;;10.52;2.78;;;;;;;;;;5071823;28;20044;-80
2022/04/06 05:39:31;;;;;;;11.57;2.55;;;;;;;;;;5072031;28;20055;-81
2022/04/06 05:41:57;;;;;;;11.85;2.90;;;;;;;;;;5072093;28;20404;-80
2022/04/06 05:44:23;;;;;;;10.98;2.97;;;;;;;;;;5072185;28;20062;-84
2022/04/06 05:46:52;;;;;;;13.68;2.90;;;;;;;;;;5071774;28;20515;-80
2022/04/06 05:49:18;;;;;;;14.60;2.85;;;;;;;;;;5071723;28;20062;-81
2022/04/06 05:51:44;;;;;;;12.60;2.67;;;;;;;;;;5071725;28;20472;-79
2022/04/06 05:54:10;;;;;;;13.23;3.20;;;;;;;;;;5071652;28;20043;-83
2022/04/06 05:56:37;;;;;;;14.50;2.33;;;;;;;;;;5054718;28;20080;-79
2022/04/06 05:59:03;;;;;;;9.68;2.40;;;;;;;;;;5071224;28;20041;-80
2022/04/06 06:01:29;;;;;;;12.20;2.70;;;;;;;;;;5071520;28;20032;-77
2022/04/06 06:03:55;;;;;;;12.15;3.15;;;;;;;;;;5070892;28;20033;-76
2022/04/06 06:06:21;;;;;;;18.23;3.47;;;;;;;;;;5072886;28;20124;-79
2022/04/06 06:08:48;;;;;;;9.40;2.30;;;;;;;;;;5054519;28;20044;-79
2022/04/06 06:11:14;;;;;;;19.70;3.58;;;;;;;;;;5071270;28;20068;-78
2022/04/06 06:13:41;;;;;;;9.77;2.30;;;;;;;;;;5054797;28;20083;-78
2022/04/06 06:16:07;;;;;;;11.02;2.08;;;;;;;;;;5071188;28;20040;-79
2022/04/06 06:18:33;;;;;;;9.65;2.40;;;;;;;;;;5072258;28;20047;-79
2022/04/06 06:21:01;;;;;;;11.00;2.10;;;;;;;;;;5071030;28;20413;-78
2022/04/06 06:23:27;;;;;;;13.40;2.88;;;;;;;;;;5071410;28;20044;-79
2022/04/06 06:25:53;;;;;;;7.43;1.88;;;;;;;;;;5070614;28;20075;-79
2022/04/06 06:28:20;;;;;;;14.05;2.30;;;;;;;;;;5071025;28;20141;-79
2022/04/06 06:30:46;;;;;;;11.90;2.17;;;;;;;;;;5070232;28;20036;-79
2022/04/06 06:33:13;;;;;;;8.88;2.10;;;;;;;;;;5070954;28;20040;-79
2022/04/06 06:35:39;;;;;;;12.90;2.22;;;;;;;;;;5071074;28;20377;-78
2022/04/06 06:38:06;;;;;;;12.15;2.80;;;;;;;;;;5054299;28;20067;-79
2022/04/06 06:40:32;;;;;;;19.67;2.78;;;;;;;;;;5054238;28;20173;-79
2022/04/06 06:42:58;;;;;;;12.10;3.58;;;;;;;;;;5053911;28;20076;-76
2022/04/06 06:45:24;;;;;;;10.23;2.30;;;;;;;;;;5054313;28;20043;-76
2022/04/06 06:47:51;;;;;;;11.30;2.63;;;;;;;;;;5070196;28;20415;-79
2022/04/06 06:50:18;;;;;;;14.93;3.25;;;;;;;;;;5070751;28;20072;-79
2022/04/06 06:52:45;;;;;;;12.75;3.45;;;;;;;;;;5053514;28;20127;-79
2022/04/06 06:55:11;;;;;;;16.02;2.63;;;;;;;;;;5070705;28;20400;-78
2022/04/06 06:57:37;;;;;;;16.42;3.30;;;;;;;;;;5071001;28;20074;-81
2022/04/06 07:00:06;;;;;;;10.80;2.60;;;;;;;;;;5071804;28;20032;-81
2022/04/06 07:02:32;;;;;;;14.23;3.00;;;;;;;;;;5051463;28;20036;-79
2022/04/06 07:04:59;;;;;;;14.38;2.80;;;;;;;;;;5071212;28;20032;-80
2022/04/06 07:07:25;;;;;;;16.52;2.90;;;;;;;;;;5070430;28;20048;-79
2022/04/06 07:09:51;;;;;;;18.33;2.83;;;;;;;;;;5053622;28;20503;-79
2022/04/06 07:12:17;;;;;;;16.63;3.17;;;;;;;;;;5070366;28;20068;-79
2022/04/06 07:14:43;;;;;;;17.23;3.15;;;;;;;;;;5070160;28;20052;-82
2022/04/06 07:17:09;;;;;;;17.58;3.00;;;;;;;;;;5070380;28;21011;-82
2022/04/06 07:19:35;;;;;;;15.32;3.20;;;;;;;;;;5053691;28;20041;-82
2022/04/06 07:22:01;;;;;;;11.15;2.80;;;;;;;;;;5069854;28;20040;-81
2022/04/06 07:24:27;;;;;;;16.38;3.45;;;;;;;;;;5070206;28;21391;-80
2022/04/06 07:26:54;;;;;;;18.20;3.55;;;;;;;;;;5069711;28;20101;-79
2022/04/06 07:29:20;;;;;;;17.08;3.40;;;;;;;;;;5070249;28;20185;-78
2022/04/06 07:31:46;;;;;;;20.55;3.90;;;;;;;;;;5068752;28;20287;-78
2022/04/06 07:34:12;;;;;;;14.45;3.03;;;;;;;;;;5052925;28;20170;-79
2022/04/06 07:36:38;;;;;;;18.35;3.25;;;;;;;;;;5071125;28;20407;-79
2022/04/06 07:39:05;;;;;;;15.88;2.97;;;;;;;;;;5068801;28;20052;-79
2022/04/06 07:41:31;;;;;;;19.15;2.92;;;;;;;;;;5069809;28;20515;-79
2022/04/06 07:43:57;;;;;;;17.73;2.72;;;;;;;;;;5052894;28;20742;-78
2022/04/06 07:46:24;;;;;;;11.50;2.90;;;;;;;;;;5069312;28;20047;-79
2022/04/06 07:48:50;;;;;;;13.55;3.00;;;;;;;;;;5069369;28;20044;-78
2022/04/06 07:51:16;;;;;;;13.52;2.90;;;;;;;;;;5052842;28;20032;-83
2022/04/06 07:53:43;;;;;;;14.05;3.03;;;;;;;;;;5068739;28;20154;-81
2022/04/06 07:56:09;;;;;;;16.73;2.88;;;;;;;;;;5069317;28;20047;-82
2022/04/06 07:58:35;;;;;;;16.48;3.08;;;;;;;;;;5069519;28;20036;-81
2022/04/06 08:01:02;;;;;;;17.20;3.22;;;;;;;;;;5069049;28;20052;-80
2022/04/06 08:03:29;;;;;;;13.43;3.42;;;;;;;;;;5052785;28;20037;-82
2022/04/06 08:05:56;;;;;;;17.55;3.83;;;;;;;;;;5052179;28;20052;-80
2022/04/06 08:08:22;;;;;;;15.50;3.05;;;;;;;;;;5069193;28;20051;-80
2022/04/06 08:10:48;;;;;;;15.23;3.17;;;;;;;;;;5035023;28;20039;-80
2022/04/06 08:13:14;;;;;;;15.52;2.90;;;;;;;;;;5052174;28;20040;-80
2022/04/06 08:15:42;;;;;;;13.88;2.75;;;;;;;;;;5052312;28;20488;-81
2022/04/06 08:18:08;;;;;;;14.35;3.10;;;;;;;;;;5052698;28;20479;-80
2022/04/06 08:20:34;;;;;;;18.88;3.17;;;;;;;;;;5035737;28;20123;-79
2022/04/06 08:23:00;;;;;;;11.57;2.88;;;;;;;;;;5069155;28;20399;-79
2022/04/06 08:25:27;;;;;;;10.40;2.67;;;;;;;;;;5068859;28;20048;-79
2022/04/06 08:27:53;;;;;;;15.10;3.05;;;;;;;;;;5051967;28;20036;-78
2022/04/06 08:30:22;;;;;;;10.10;2.50;;;;;;;;;;5068902;28;20040;-77
2022/04/06 08:32:49;;;;;;;14.13;2.63;;;;;;;;;;5052233;28;20090;-78
2022/04/06 08:35:17;;;;;;;12.07;2.85;;;;;;;;;;5068622;28;20044;-79
2022/04/06 08:37:43;;;;;;;11.15;2.97;;;;;;;;;;5036002;28;20480;-76
2022/04/06 08:40:10;;;;;;;13.77;2.97;;;;;;;;;;5068971;28;20048;-79
2022/04/06 08:42:37;;;;;;;10.10;2.85;;;;;;;;;;5068668;28;20044;-79
2022/04/06 08:45:06;;;;;;;11.63;3.50;;;;;;;;;;5068415;28;20381;-79
2022/04/06 08:47:33;;;;;;;12.20;3.20;;;;;;;;;;5066400;28;20132;-77
2022/04/06 08:50:00;;;;;;;13.18;2.72;;;;;;;;;;5051640;28;20036;-82
2022/04/06 08:52:26;;;;;;;12.93;2.58;;;;;;;;;;5068300;28;20028;-80
2022/04/06 08:54:53;;;;;;;11.73;2.92;;;;;;;;;;5068480;28;20062;-83
2022/04/06 08:57:19;;;;;;;11.98;2.83;;;;;;;;;;5068548;28;20123;-79
2022/04/06 08:59:49;;;;;;;9.30;2.42;;;;;;;;;;5067920;28;20055;-78
2022/04/06 09:02:19;;;;;;;11.80;2.65;;;;;;;;;;5068240;28;20044;-80
2022/04/06 09:04:53;;;;;;;7.63;2.45;;;;;;;;;;5069594;28;20041;-78
2022/04/06 09:07:20;;;;;;;12.85;2.92;;;;;;;;;;5066447;28;20063;-79
2022/04/06 09:09:49;;;;;;;12.98;2.65;;;;;;;;;;5068255;28;20043;-79
2022/04/06 09:12:17;;;;;;;11.55;2.72;;;;;;;;;;5069524;28;20118;-79
2022/04/06 09:14:43;;;;;;;10.18;2.60;;;;;;;;;;5067710;28;20040;-77
2022/04/06 09:17:09;;;;;;;8.23;2.80;;;;;;;;;;5051173;28;20041;-79
2022/04/06 09:19:36;;;;;;;12.43;2.90;;;;;;;;;;5051825;28;20511;-79
2022/04/06 09:22:06;;;;;;;13.85;3.65;;;;;;;;;;5051449;28;20511;-80
2022/04/06 09:24:32;;;;;;;12.85;3.75;;;;;;;;;;5067995;28;20037;-80
2022/04/06 09:26:59;;;;;;;12.52;3.35;;;;;;;;;;5069149;28;20092;-79
2022/04/06 09:29:25;;;;;;;10.60;3.20;;;;;;;;;;5068443;28;20116;-82
2022/04/06 09:31:51;;;;;;;12.27;3.75;;;;;;;;;;5035153;28;20047;-81
2022/04/06 09:34:21;;;;;;;12.18;3.40;;;;;;;;;;5068299;28;20052;-81
2022/04/06 09:36:47;;;;;;;14.35;3.30;;;;;;;;;;5067812;28;20082;-80
2022/04/06 09:39:13;;;;;;;11.23;3.70;;;;;;;;;;5068042;28;20462;-79
2022/04/06 09:42:01;;;;;;;13.18;3.50;;;;;;;;;;5068039;28;20044;-81
2022/04/06 09:50:19;;;;;;;14.98;4.50;;;;;;;;;;5067808;28;20063;-76
2022/04/06 09:52:46;;;;;;;12.88;4.05;;;;;;;;;;5067717;28;20499;-80
2022/04/06 09:55:13;;;;;;;11.50;3.55;;;;;;;;;;5068085;28;20044;-80
2022/04/06 09:57:41;;;;;;;14.63;3.88;;;;;;;;;;5069217;28;20052;-76
2022/04/06 10:00:08;;;;;;;12.15;3.53;;;;;;;;;;5065450;28;20396;-77
2022/04/06 10:02:35;;;;;;;11.80;3.50;;;;;;;;;;5069748;28;20050;-78
2022/04/06 10:05:03;;;;;;;13.38;3.85;;;;;;;;;;5071450;28;20036;-76
2022/04/06 10:07:29;;;;;;;15.05;4.28;;;;;;;;;;5069156;28;20046;-78
2022/04/06 10:09:56;;;;;;;15.25;3.80;;;;;;;;;;5054921;28;20530;-80
2022/04/06 10:12:23;;;;;;;19.63;4.38;;;;;;;;;;5071509;28;20040;-81
2022/04/06 10:14:50;;;;;;;14.02;4.10;;;;;;;;;;5071222;28;20120;-78
2022/04/06 10:17:16;;;;;;;11.52;3.80;;;;;;;;;;5054830;28;20044;-79
2022/04/06 10:19:46;;;;;;;16.80;4.65;;;;;;;;;;5071167;28;20044;-79
2022/04/06 10:22:19;;;;;;;11.07;3.60;;;;;;;;;;5071397;28;20492;-78
2022/04/06 10:25:01;;;;;;;19.20;4.00;;;;;;;;;;5071044;28;20052;-79
2022/04/06 10:27:35;;;;;;;14.43;4.13;;;;;;;;;;5070143;28;20040;-78
2022/04/06 10:30:07;;;;;;;17.00;4.93;;;;;;;;;;5071869;28;20111;-78
2022/04/06 10:32:38;;;;;;;21.45;5.07;;;;;;;;;;5070649;28;20036;-79
2022/04/06 10:35:23;;;;;;;15.70;4.50;;;;;;;;;;5070943;28;20044;-78
2022/04/06 10:37:49;;;;;;;16.35;3.67;;;;;;;;;;5070055;28;20042;-78
2022/04/06 10:40:16;;;;;;;13.48;4.30;;;;;;;;;;5070719;28;20048;-78
2022/04/06 10:42:43;;;;;;;16.20;4.80;;;;;;;;;;5054101;28;20054;-78
2022/04/06 10:45:25;;;;;;;15.32;4.10;;;;;;;;;;5070584;28;20047;-78
2022/04/06 10:48:10;;;;;;;21.10;4.95;;;;;;;;;;5068531;28;20400;-79
2022/04/06 10:50:37;;;;;;;14.53;4.17;;;;;;;;;;5070813;28;20115;-78
2022/04/06 10:53:26;;;;;;;13.93;4.30;;;;;;;;;;5069974;28;20275;-78
2022/04/06 10:55:57;;;;;;;18.30;4.95;;;;;;;;;;5063752;28;20052;-79
2022/04/06 10:58:25;;;;;;;18.58;5.30;;;;;;;;;;5070394;28;20040;-78
2022/04/06 11:01:10;;;;;;;15.85;5.32;;;;;;;;;;5054044;28;20044;-78
2022/04/06 11:03:39;;;;;;;15.80;5.20;;;;;;;;;;5053455;28;20037;-78
2022/04/06 11:06:05;;;;;;;17.95;5.55;;;;;;;;;;5065239;28;20040;-79
2022/04/06 11:11:42;;;;;;;14.27;4.68;;;;;;;;;;5070665;28;20036;-79
2022/04/06 11:14:09;;;;;;;19.80;4.53;;;;;;;;;;5068986;28;20487;-76
2022/04/06 11:16:45;;;;;;;18.80;5.13;;;;;;;;;;5053868;28;20508;-80
2022/04/06 11:19:12;;;;;;;21.98;4.93;;;;;;;;;;5070134;28;20036;-80
2022/04/06 11:21:51;;;;;;;17.88;4.45;;;;;;;;;;5070268;28;20044;-79
2022/04/06 11:24:22;;;;;;;19.58;3.92;;;;;;;;;;5070072;28;20048;-80
2022/04/06 11:26:48;;;;;;;17.65;3.78;;;;;;;;;;5071303;28;20037;-81
2022/04/06 11:29:14;;;;;;;20.15;3.83;;;;;;;;;;5053395;28;20143;-79
2022/04/06 11:31:57;;;;;;;16.45;3.42;;;;;;;;;;5053426;28;20040;-80
2022/04/06 11:34:39;;;;;;;17.10;4.00;;;;;;;;;;5070578;28;20170;-81
2022/04/06 11:37:06;;;;;;;11.88;3.17;;;;;;;;;;5036384;28;20052;-80
2022/04/06 11:39:34;;;;;;;14.35;3.35;;;;;;;;;;5052904;28;20052;-79
2022/04/06 11:42:01;;;;;;;16.95;3.53;;;;;;;;;;5069780;28;20086;-80
2022/04/06 11:44:28;;;;;;;14.95;3.47;;;;;;;;;;5069491;28;20044;-79
2022/04/06 11:46:54;;;;;;;14.65;3.67;;;;;;;;;;5069482;28;20037;-79
2022/04/06 11:49:21;;;;;;;14.88;3.22;;;;;;;;;;5069622;28;20309;-82
2022/04/06 11:51:47;;;;;;;17.40;3.30;;;;;;;;;;5069573;28;20036;-79
2022/04/06 11:54:14;;;;;;;15.18;3.25;;;;;;;;;;5069426;28;20040;-81
2022/04/06 11:56:40;;;;;;;13.75;2.90;;;;;;;;;;5069569;28;20075;-80
2022/04/06 11:59:09;;;;;;;15.35;3.72;;;;;;;;;;5052384;28;20048;-78
2022/04/06 12:01:42;;;;;;;17.20;3.10;;;;;;;;;;5069274;28;20037;-78
2022/04/06 12:04:14;;;;;;;12.68;3.00;;;;;;;;;;5069135;28;20534;-79
2022/04/06 12:06:40;;;;;;;13.68;3.13;;;;;;;;;;5052674;28;20127;-79
2022/04/06 12:09:07;;;;;;;14.43;3.17;;;;;;;;;;5068886;28;20103;-79
2022/04/06 12:11:36;;;;;;;17.50;3.45;;;;;;;;;;5052535;28;20397;-80
2022/04/06 12:14:03;;;;;;;15.60;3.00;;;;;;;;;;5052026;28;20075;-79
2022/04/06 12:16:30;;;;;;;13.90;3.72;;;;;;;;;;5069043;28;20082;-79
2022/04/06 12:18:57;;;;;;;16.27;3.45;;;;;;;;;;5052443;28;20063;-76
2022/04/06 12:21:29;;;;;;;12.82;2.88;;;;;;;;;;5052836;28;20075;-76
2022/04/06 12:23:56;;;;;;;12.82;2.38;;;;;;;;;;5068725;28;20039;-75
2022/04/06 12:26:22;;;;;;;10.75;2.70;;;;;;;;;;5068560;28;20036;-77
2022/04/06 12:28:49;;;;;;;11.05;2.30;;;;;;;;;;5051796;28;20044;-77
2022/04/06 12:31:15;;;;;;;12.02;2.35;;;;;;;;;;5068991;28;20041;-78
2022/04/06 12:33:50;;;;;;;12.15;2.80;;;;;;;;;;5068861;28;20531;-78
2022/04/06 12:36:20;;;;;;;10.02;2.63;;;;;;;;;;5068490;28;20044;-77
2022/04/06 12:39:15;;;;;;;11.43;2.78;;;;;;;;;;5068459;28;20097;-78
2022/04/06 12:41:51;;;;;;;12.95;2.70;;;;;;;;;;5029481;28;20076;-77
2022/04/06 12:44:17;;;;;;;;;;;;;;;;;;5069071;28;20446;-78
2022/04/06 12:46:47;;;;;;;9.30;2.10;;;;;;;;;;5068663;28;19920;-79
2022/04/06 12:49:42;;;;;;;10.52;2.28;;;;;;;;;;5049558;28;20400;-79
2022/04/06 12:52:18;;;;;;;8.38;2.35;;;;;;;;;;5049705;28;20040;-79
2022/04/06 12:54:49;;;;;;;9.75;2.67;;;;;;;;;;5068562;28;20446;-79
2022/04/06 12:57:19;;;;;;;8.05;2.20;;;;;;;;;;5069938;28;20039;-78
2022/04/06 12:59:54;;;;;;;10.13;2.22;;;;;;;;;;5068245;28;20127;-78
2022/04/06 13:02:41;;;;;;;7.40;2.20;;;;;;;;;;5051779;28;20048;-79
2022/04/06 13:05:07;;;;;;;;;;;;;;;;;;5057183;28;20048;-79
2022/04/06 13:07:33;;;;;;;12.20;2.25;;;;;;;;;;5069816;28;19920;-78
2022/04/06 13:10:00;;;;;;;9.68;2.35;;;;;;;;;;5068099;28;20036;-79
2022/04/06 13:12:27;;;;;;;12.60;2.35;;;;;;;;;;5068789;28;20090;-79
2022/04/06 13:14:54;;;;;;;8.07;2.80;;;;;;;;;;5068150;28;20040;-78
2022/04/06 13:17:21;;;;;;;12.05;3.08;;;;;;;;;;5068442;28;20396;-78
2022/04/06 13:19:47;;;;;;;8.70;2.50;;;;;;;;;;5068105;28;20047;-79
2022/04/06 13:22:14;;;;;;;12.90;3.03;;;;;;;;;;5051700;28;20492;-78
2022/04/06 13:24:40;;;;;;;11.63;3.15;;;;;;;;;;5068138;28;20504;-76
2022/04/06 13:27:06;;;;;;;9.77;2.70;;;;;;;;;;5067949;28;20372;-79
2022/04/06 13:29:33;;;;;;;6.38;2.03;;;;;;;;;;5069528;28;20120;-79
2022/04/06 13:32:00;;;;;;;9.68;2.88;;;;;;;;;;5068318;28;20041;-76
2022/04/06 13:34:26;;;;;;;9.32;2.97;;;;;;;;;;5068353;28;20070;-76
2022/04/06 13:36:52;;;;;;;8.27;2.90;;;;;;;;;;5068616;28;20044;-79
2022/04/06 13:39:20;;;;;;;8.70;3.10;;;;;;;;;;5072253;28;20146;-81
2022/04/06 13:41:48;;;;;;;11.55;4.03;;;;;;;;;;5055232;28;20076;-77
2022/04/06 13:44:16;;;;;;;9.75;3.97;;;;;;;;;;5071828;28;20110;-76
2022/04/06 13:46:42;;;;;;;10.30;4.28;;;;;;;;;;5058227;28;20048;-77
2022/04/06 13:49:08;;;;;;;9.15;3.80;;;;;;;;;;5059248;28;20029;-80
2022/04/06 13:51:34;;;;;;;11.20;4.38;;;;;;;;;;5077326;28;20036;-80
2022/04/06 13:54:01;;;;;;;7.38;4.38;;;;;;;;;;5073107;28;20040;-75
2022/04/06 13:56:27;;;;;;;8.77;4.25;;;;;;;;;;5072540;28;20552;-76
2022/04/06 13:58:53;;;;;;;8.13;4.40;;;;;;;;;;5055780;28;20041;-81
2022/04/06 14:01:19;;;;;;;11.30;5.30;;;;;;;;;;5072350;28;20062;-81
2022/04/06 14:03:45;;;;;;;11.63;6.00;;;;;;;;;;5073268;28;20047;-78
2022/04/06 14:06:13;;;;;;;9.63;5.78;;;;;;;;;;5071644;28;20089;-81
2022/04/06 14:08:39;;;;;;;11.93;5.90;;;;;;;;;;5072039;28;20072;-78
2022/04/06 14:11:06;;;;;;;12.48;6.10;;;;;;;;;;5038296;28;20123;-78
2022/04/06 14:13:32;;;;;;;11.30;6.05;;;;;;;;;;5071716;28;20048;-79
2022/04/06 14:15:58;;;;;;;9.65;5.43;;;;;;;;;;5071327;28;20036;-80
2022/04/06 14:18:24;;;;;;;9.93;5.40;;;;;;;;;;5054912;28;20044;-75
2022/04/06 14:20:51;;;;;;;9.07;5.00;;;;;;;;;;5072660;28;20036;-80
2022/04/06 14:23:17;;;;;;;8.85;4.93;;;;;;;;;;5071653;28;20037;-80
2022/04/06 14:25:43;;;;;;;10.52;4.97;;;;;;;;;;5071085;28;20052;-77
2022/04/06 14:28:09;;;;;;;8.95;5.13;;;;;;;;;;5071091;28;20055;-81
2022/04/06 14:30:36;;;;;;;7.55;5.68;;;;;;;;;;5071557;28;20063;-82
2022/04/06 14:33:02;;;;;;;10.93;6.07;;;;;;;;;;5071250;28;20114;-83
2022/04/06 14:35:29;;;;;;;8.48;6.22;;;;;;;;;;5071149;28;20471;-83
2022/04/06 14:37:55;;;;;;;9.35;6.18;;;;;;;;;;5070295;28;20040;-84
2022/04/06 14:40:21;;;;;;;9.25;6.45;;;;;;;;;;5054302;28;20055;-81
2022/04/06 14:42:48;;;;;;;8.45;7.20;;;;;;;;;;5070897;28;20044;-82
2022/04/06 14:45:15;;;;;;;10.60;6.55;;;;;;;;;;5070642;28;20412;-83
2022/04/06 14:47:41;;;;;;;9.77;6.63;;;;;;;;;;5054041;28;20064;-81
2022/04/06 14:50:10;;;;;;;12.52;6.78;;;;;;;;;;5070402;28;20118;-82